createdAt,value
2024-01-16T00:00:48.069Z,0.59
2024-01-16T00:03:35.997Z,0.60
2024-01-16T00:06:12.900Z,0.63
2024-01-16T00:08:45.355Z,0.60
2024-01-16T00:11:38.895Z,0.66
2024-01-16T00:14:14.651Z,0.71
2024-01-16T00:17:02.671Z,0.65
2024-01-16T00:20:11.390Z,0.67
2024-01-16T00:23:19.341Z,0.73
2024-01-16T00:26:15.711Z,0.75
2024-01-16T00:29:04.384Z,0.80
2024-01-16T00:32:12.398Z,0.82
2024-01-16T00:34:48.115Z,0.84
2024-01-16T00:37:37.182Z,0.84
2024-01-16T00:40:14.036Z,0.82
2024-01-16T00:43:21.827Z,0.76
2024-01-16T00:45:52.046Z,0.74
2024-01-16T00:48:23.604Z,0.71
2024-01-16T00:51:31.874Z,0.69
2024-01-16T00:54:21.092Z,0.67
2024-01-16T00:57:26.310Z,0.57
2024-01-16T00:59:55.052Z,0.52
2024-01-16T01:02:44.371Z,0.46
2024-01-16T01:05:12.534Z,0.46
2024-01-16T01:08:01.433Z,0.43
2024-01-16T01:10:50.356Z,0.42
2024-01-16T01:13:36.850Z,0.36
2024-01-16T01:16:17.592Z,0.34
2024-01-16T01:19:09.789Z,0.31
2024-01-16T01:22:18.016Z,0.26
2024-01-16T01:25:29.413Z,0.24
2024-01-16T01:28:25.461Z,0.19
2024-01-16T01:31:13.361Z,0.11
2024-01-16T01:34:03.365Z,0.11
2024-01-16T01:36:32.965Z,0.11
2024-01-16T01:39:26.836Z,0.05
2024-01-16T01:42:14.857Z,0.04
2024-01-16T01:45:26.716Z,0.04
2024-01-16T01:48:22.688Z,0.04
2024-01-16T01:51:12.764Z,-0.03
2024-01-16T01:54:15.863Z,-0.03
2024-01-16T01:56:56.467Z,-0.02
2024-01-16T02:00:03.758Z,-0.05
2024-01-16T02:02:44.341Z,-0.05
2024-01-16T02:05:14.291Z,-0.05
2024-01-16T02:07:54.114Z,-0.02
2024-01-16T02:11:17.818Z,0.02
2024-01-16T02:14:26.757Z,0.03
2024-01-16T02:17:19.268Z,0.05
2024-01-16T02:19:56.514Z,0.08
2024-01-16T02:22:26.568Z,0.11
2024-01-16T02:25:15.327Z,0.15
2024-01-16T02:28:43.115Z,0.21
2024-01-16T02:31:14.028Z,0.18
2024-01-16T02:33:44.950Z,0.17
2024-01-16T02:36:22.582Z,0.08
2024-01-16T02:39:12.761Z,0.08
2024-01-16T02:42:20.510Z,0.01
2024-01-16T02:45:02.255Z,0.03
2024-01-16T02:47:34.255Z,0.03
2024-01-16T02:50:24.606Z,0.01
2024-01-16T02:53:08.092Z,-0.01
2024-01-16T02:55:40.686Z,0.03
2024-01-16T02:58:19.032Z,0.04
2024-01-16T03:00:51.470Z,0.04
2024-01-16T03:03:42.686Z,0.03
2024-01-16T03:06:19.754Z,0.03
2024-01-16T03:09:06.478Z,0.03
2024-01-16T03:11:36.679Z,0.02
2024-01-16T03:15:04.350Z,-0.00
2024-01-16T03:18:14.284Z,0.01
2024-01-16T03:21:10.668Z,0.00
2024-01-16T03:23:54.948Z,-0.03
2024-01-16T03:27:00.572Z,-0.02
2024-01-16T03:29:50.231Z,-0.04
2024-01-16T03:32:46.076Z,-0.07
2024-01-16T03:35:35.326Z,-0.16
2024-01-16T03:38:27.999Z,-0.19
2024-01-16T03:41:31.472Z,-0.24
2024-01-16T03:44:23.740Z,-0.30
2024-01-16T03:46:53.779Z,-0.25
2024-01-16T03:49:32.909Z,-0.27
2024-01-16T03:52:22.873Z,-0.27
2024-01-16T03:55:13.251Z,-0.28
2024-01-16T03:58:24.872Z,-0.26
2024-01-16T04:01:13.790Z,-0.30
2024-01-16T04:04:29.512Z,-0.32
2024-01-16T04:06:59.795Z,-0.32
2024-01-16T04:09:49.164Z,-0.35
2024-01-16T04:12:49.339Z,-0.35
2024-01-16T04:15:37.332Z,-0.35
2024-01-16T04:18:10.036Z,-0.34
2024-01-16T04:20:48.538Z,-0.35
2024-01-16T04:23:57.190Z,-0.39
2024-01-16T04:26:26.734Z,-0.47
2024-01-16T04:29:35.413Z,-0.48
2024-01-16T04:32:14.045Z,-0.54
2024-01-16T04:35:04.435Z,-0.63
2024-01-16T04:37:54.193Z,-0.69
2024-01-16T04:40:44.649Z,-0.78
2024-01-16T04:43:32.973Z,-0.81
2024-01-16T04:46:41.797Z,-0.82
2024-01-16T04:49:14.867Z,-0.85
2024-01-16T04:52:42.566Z,-0.86
2024-01-16T04:55:32.247Z,-0.90
2024-01-16T04:58:41.294Z,-0.95
2024-01-16T05:01:52.933Z,-0.99
2024-01-16T05:04:22.718Z,-1.02
2024-01-16T05:07:30.545Z,-1.04
2024-01-16T05:10:58.489Z,-1.05
2024-01-16T05:14:10.336Z,-1.06
2024-01-16T05:17:19.163Z,-1.05
2024-01-16T05:20:10.447Z,-1.06
2024-01-16T05:23:19.224Z,-1.12
2024-01-16T05:26:47.547Z,-1.11
2024-01-16T05:29:53.154Z,-1.15
2024-01-16T05:32:30.877Z,-1.19
2024-01-16T05:35:25.046Z,-1.20
2024-01-16T05:38:23.600Z,-1.19
2024-01-16T05:41:33.025Z,-1.15
2024-01-16T05:44:41.764Z,-1.15
2024-01-16T05:47:31.254Z,-1.13
2024-01-16T05:50:58.938Z,-1.11
2024-01-16T05:54:04.811Z,-1.17
2024-01-16T05:57:12.777Z,-1.21
2024-01-16T05:59:56.315Z,-1.17
2024-01-16T06:02:53.283Z,-1.16
2024-01-16T06:06:17.695Z,-1.12
2024-01-16T06:08:52.584Z,-1.09
2024-01-16T06:12:02.747Z,-1.06
2024-01-16T06:15:06.290Z,-1.06
2024-01-16T06:17:58.142Z,-1.02
2024-01-16T06:20:51.073Z,-1.01
2024-01-16T06:23:39.597Z,-1.02
2024-01-16T06:27:07.674Z,-1.01
2024-01-16T06:29:59.839Z,-1.02
2024-01-16T06:33:11.896Z,-1.09
2024-01-16T06:36:19.822Z,-1.05
2024-01-16T06:39:11.432Z,-1.10
2024-01-16T06:42:01.185Z,-1.12
2024-01-16T06:44:51.549Z,-1.15
2024-01-16T06:48:00.408Z,-1.21
2024-01-16T06:51:09.068Z,-1.25
2024-01-16T06:54:18.669Z,-1.23
2024-01-16T06:57:08.045Z,-1.22
2024-01-16T06:59:56.064Z,-1.19
2024-01-16T07:03:04.591Z,-1.16
2024-01-16T07:05:53.704Z,-1.12
2024-01-16T07:09:09.584Z,-1.12
2024-01-16T07:12:06.702Z,-1.09
2024-01-16T07:15:15.093Z,-1.09
2024-01-16T07:18:23.175Z,-1.13
2024-01-16T07:21:16.972Z,-1.17
2024-01-16T07:24:05.021Z,-1.15
2024-01-16T07:27:12.807Z,-1.12
2024-01-16T07:30:04.430Z,-1.10
2024-01-16T07:32:43.810Z,-1.09
2024-01-16T07:35:51.530Z,-1.08
2024-01-16T07:38:40.340Z,-1.03
2024-01-16T07:41:48.739Z,-1.01
2024-01-16T07:45:16.353Z,-0.95
2024-01-16T07:48:10.260Z,-0.93
2024-01-16T07:51:19.160Z,-0.83
2024-01-16T07:54:11.058Z,-0.82
2024-01-16T07:57:27.166Z,-0.74
2024-01-16T08:00:34.929Z,-0.69
2024-01-16T08:03:38.518Z,-0.57
2024-01-16T08:06:35.537Z,-0.47
2024-01-16T08:09:44.449Z,-0.43
2024-01-16T08:12:44.018Z,-0.36
2024-01-16T08:15:51.850Z,-0.29
2024-01-16T08:18:40.236Z,-0.21
2024-01-16T08:21:08.231Z,-0.17
2024-01-16T08:24:19.179Z,-0.13
2024-01-16T08:27:27.142Z,-0.07
2024-01-16T08:30:17.887Z,-0.03
2024-01-16T08:33:47.269Z,0.04
2024-01-16T08:36:54.335Z,0.07
2024-01-16T08:40:10.267Z,0.14
2024-01-16T08:43:00.491Z,0.21
2024-01-16T08:45:49.036Z,0.28
2024-01-16T08:48:39.322Z,0.31
2024-01-16T08:51:30.059Z,0.41
2024-01-16T08:54:41.617Z,0.54
2024-01-16T08:57:50.509Z,0.65
2024-01-16T09:00:43.276Z,0.70
2024-01-16T09:03:36.535Z,0.71
2024-01-16T09:07:04.405Z,0.68
2024-01-16T09:09:35.746Z,0.72
2024-01-16T09:12:43.564Z,0.85
2024-01-16T09:15:52.433Z,0.93
2024-01-16T09:18:44.500Z,1.03
2024-01-16T09:21:13.964Z,1.10
2024-01-16T09:23:46.219Z,1.14
2024-01-16T09:26:42.101Z,1.25
2024-01-16T09:29:32.094Z,1.36
2024-01-16T09:32:06.072Z,1.44
2024-01-16T09:35:02.712Z,1.58
2024-01-16T09:38:26.295Z,1.66
2024-01-16T09:41:18.428Z,1.69
2024-01-16T09:43:49.096Z,1.75
2024-01-16T09:46:18.614Z,1.82
2024-01-16T09:49:22.775Z,1.90
2024-01-16T09:52:15.349Z,1.99
2024-01-16T09:55:23.289Z,2.11
2024-01-16T09:58:34.566Z,2.18
2024-01-16T10:02:02.214Z,2.33
2024-01-16T10:04:52.898Z,2.48
2024-01-16T10:08:04.597Z,2.52
2024-01-16T10:10:53.643Z,2.54
2024-01-16T10:13:51.017Z,2.62
2024-01-16T10:16:44.770Z,2.77
2024-01-16T10:19:52.364Z,2.88
2024-01-16T10:22:37.776Z,3.01
2024-01-16T10:25:06.605Z,3.09
2024-01-16T10:28:02.886Z,3.14
2024-01-16T10:31:00.238Z,3.25
2024-01-16T10:33:52.257Z,3.31
2024-01-16T10:37:00.322Z,3.41
2024-01-16T10:40:10.554Z,3.57
2024-01-16T10:43:06.727Z,3.63
2024-01-16T10:45:55.785Z,3.67
2024-01-16T10:49:03.924Z,3.64
2024-01-16T10:51:53.080Z,3.74
2024-01-16T10:54:57.149Z,3.81
2024-01-16T10:58:14.093Z,3.78
2024-01-16T11:01:40.589Z,3.89
2024-01-16T11:05:08.375Z,3.94
2024-01-16T11:08:02.366Z,3.91
2024-01-16T11:11:12.083Z,3.87
2024-01-16T11:13:41.640Z,3.82
2024-01-16T11:16:29.995Z,3.66
2024-01-16T11:19:32.142Z,3.57
2024-01-16T11:22:46.164Z,3.39
2024-01-16T11:26:14.015Z,3.21
2024-01-16T11:28:49.596Z,3.26
2024-01-16T11:31:19.920Z,3.47
2024-01-16T11:34:12.922Z,3.64
2024-01-16T11:37:28.229Z,3.73
2024-01-16T11:40:01.804Z,3.88
2024-01-16T11:42:50.470Z,3.89
2024-01-16T11:45:46.731Z,3.98
2024-01-16T11:49:10.618Z,4.08
2024-01-16T11:51:59.674Z,4.15
2024-01-16T11:54:28.538Z,4.26
2024-01-16T11:57:39.913Z,4.27
2024-01-16T12:01:07.617Z,4.45
2024-01-16T12:03:37.915Z,4.57
2024-01-16T12:06:45.806Z,4.66
2024-01-16T12:09:34.902Z,4.77
2024-01-16T12:12:25.076Z,4.89
2024-01-16T12:15:14.666Z,5.01
2024-01-16T12:18:42.909Z,4.98
2024-01-16T12:21:14.756Z,5.11
2024-01-16T12:24:10.016Z,5.32
2024-01-16T12:27:19.977Z,5.49
2024-01-16T12:30:05.206Z,5.63
2024-01-16T12:32:43.569Z,5.75
2024-01-16T12:35:52.256Z,6.02
2024-01-16T12:38:57.557Z,6.04
2024-01-16T12:42:22.171Z,6.08
2024-01-16T12:45:18.202Z,6.23
2024-01-16T12:48:06.171Z,6.22
2024-01-16T12:51:06.316Z,6.25
2024-01-16T12:53:39.492Z,6.29
2024-01-16T12:56:37.607Z,6.31
2024-01-16T12:59:18.468Z,6.19
2024-01-16T13:02:28.027Z,5.93
2024-01-16T13:05:16.509Z,5.67
2024-01-16T13:08:00.238Z,5.75
2024-01-16T13:10:32.238Z,5.76
2024-01-16T13:13:00.848Z,5.70
2024-01-16T13:15:58.862Z,5.72
2024-01-16T13:18:46.850Z,5.52
2024-01-16T13:21:55.050Z,5.30
2024-01-16T13:24:48.561Z,5.18
2024-01-16T13:27:43.569Z,5.18
2024-01-16T13:30:40.453Z,5.26
2024-01-16T13:33:36.995Z,5.61
2024-01-16T13:36:54.465Z,5.74
2024-01-16T13:40:08.371Z,5.70
2024-01-16T13:43:16.823Z,5.56
2024-01-16T13:46:07.099Z,5.56
2024-01-16T13:49:30.787Z,5.42
2024-01-16T13:52:39.591Z,5.15
2024-01-16T13:55:48.466Z,4.97
2024-01-16T13:58:41.433Z,4.79
2024-01-16T14:01:39.463Z,4.56
2024-01-16T14:04:48.000Z,4.38
2024-01-16T14:07:36.684Z,4.21
2024-01-16T14:10:46.436Z,4.08
2024-01-16T14:13:35.363Z,3.98
2024-01-16T14:16:37.204Z,3.91
2024-01-16T14:19:51.290Z,3.84
2024-01-16T14:22:22.324Z,3.85
2024-01-16T14:25:31.040Z,3.81
2024-01-16T14:28:30.131Z,3.76
2024-01-16T14:31:34.597Z,3.70
2024-01-16T14:34:42.960Z,3.71
2024-01-16T14:37:48.838Z,3.66
2024-01-16T14:40:20.335Z,3.65
2024-01-16T14:42:48.554Z,3.65
2024-01-16T14:45:59.825Z,3.59
2024-01-16T14:48:29.962Z,3.53
2024-01-16T14:51:25.917Z,3.45
2024-01-16T14:53:57.228Z,3.42
2024-01-16T14:57:07.344Z,3.34
2024-01-16T14:59:57.344Z,3.25
2024-01-16T15:02:46.215Z,3.18
2024-01-16T15:05:37.031Z,3.12
2024-01-16T15:08:12.068Z,3.07
2024-01-16T15:10:59.922Z,3.00
2024-01-16T15:13:52.378Z,2.98
2024-01-16T15:16:50.073Z,2.95
2024-01-16T15:19:59.309Z,2.88
2024-01-16T15:23:09.871Z,2.86
2024-01-16T15:25:42.758Z,2.87
2024-01-16T15:28:13.320Z,2.86
2024-01-16T15:31:17.481Z,2.84
2024-01-16T15:33:49.584Z,2.82
2024-01-16T15:36:57.302Z,2.77
2024-01-16T15:39:31.439Z,2.68
2024-01-16T15:42:05.532Z,2.56
2024-01-16T15:44:55.887Z,2.52
2024-01-16T15:47:44.281Z,2.50
2024-01-16T15:50:32.532Z,2.45
2024-01-16T15:53:36.701Z,2.51
2024-01-16T15:56:44.620Z,2.48
2024-01-16T15:59:40.830Z,2.52
2024-01-16T16:02:24.061Z,2.53
2024-01-16T16:05:16.069Z,2.53
2024-01-16T16:08:32.001Z,2.56
2024-01-16T16:11:25.694Z,2.63
2024-01-16T16:14:14.263Z,2.65
2024-01-16T16:17:06.310Z,2.63
2024-01-16T16:19:37.188Z,2.70
2024-01-16T16:22:48.637Z,2.74
2024-01-16T16:25:57.265Z,2.70
2024-01-16T16:28:27.419Z,2.64
2024-01-16T16:31:36.027Z,2.63
2024-01-16T16:34:24.593Z,2.64
2024-01-16T16:37:29.168Z,2.68
2024-01-16T16:40:32.161Z,2.75
2024-01-16T16:43:20.377Z,2.86
2024-01-16T16:46:10.713Z,2.87
2024-01-16T16:49:19.879Z,2.87
2024-01-16T16:51:55.326Z,2.85
2024-01-16T16:54:25.774Z,2.83
2024-01-16T16:57:33.389Z,2.82
2024-01-16T17:00:22.511Z,2.82
2024-01-16T17:03:31.211Z,2.75
2024-01-16T17:06:23.254Z,2.63
2024-01-16T17:09:33.074Z,2.53
2024-01-16T17:12:38.811Z,2.45
2024-01-16T17:15:31.423Z,2.46
2024-01-16T17:18:59.370Z,2.47
2024-01-16T17:21:49.702Z,2.55
2024-01-16T17:24:57.788Z,2.65
2024-01-16T17:27:53.729Z,2.70
2024-01-16T17:31:21.564Z,2.64
2024-01-16T17:34:45.453Z,2.68
2024-01-16T17:37:29.722Z,2.69
2024-01-16T17:40:37.897Z,2.71
2024-01-16T17:43:46.922Z,2.74
2024-01-16T17:47:14.653Z,2.72
2024-01-16T17:50:26.158Z,2.67
2024-01-16T17:53:34.598Z,2.64
2024-01-16T17:56:09.180Z,2.53
2024-01-16T17:59:37.042Z,2.46
2024-01-16T18:02:25.671Z,2.41
2024-01-16T18:05:17.817Z,2.37
2024-01-16T18:08:13.837Z,2.30
2024-01-16T18:11:21.974Z,2.25
2024-01-16T18:14:31.278Z,2.25
2024-01-16T18:17:38.985Z,2.11
2024-01-16T18:20:35.077Z,2.05
2024-01-16T18:23:08.335Z,2.03
2024-01-16T18:26:35.932Z,2.07
2024-01-16T18:29:44.283Z,2.10
2024-01-16T18:32:34.109Z,2.11
2024-01-16T18:36:03.787Z,2.08
2024-01-16T18:39:15.451Z,2.02
2024-01-16T18:42:24.094Z,1.89
2024-01-16T18:45:29.543Z,1.79
2024-01-16T18:48:44.924Z,1.73
2024-01-16T18:52:12.669Z,1.66
2024-01-16T18:55:40.989Z,1.54
2024-01-16T18:59:08.911Z,1.45
2024-01-16T19:01:59.968Z,1.39
2024-01-16T19:05:00.560Z,1.33
2024-01-16T19:08:10.285Z,1.21
2024-01-16T19:10:58.955Z,1.13
2024-01-16T19:14:22.495Z,1.06
2024-01-16T19:17:50.253Z,1.00
2024-01-16T19:20:39.447Z,0.95
2024-01-16T19:23:48.220Z,0.92
2024-01-16T19:26:58.826Z,0.86
2024-01-16T19:29:49.041Z,0.79
2024-01-16T19:32:54.606Z,0.72
2024-01-16T19:35:59.366Z,0.68
2024-01-16T19:38:47.321Z,0.64
2024-01-16T19:41:16.620Z,0.62
2024-01-16T19:44:24.582Z,0.58
2024-01-16T19:47:32.975Z,0.58
2024-01-16T19:50:09.434Z,0.59
2024-01-16T19:53:02.225Z,0.61
2024-01-16T19:55:55.882Z,0.64
2024-01-16T19:58:44.774Z,0.63
2024-01-16T20:01:49.618Z,0.59
2024-01-16T20:04:57.657Z,0.56
2024-01-16T20:08:01.630Z,0.55
2024-01-16T20:11:17.148Z,0.53
2024-01-16T20:14:05.122Z,0.54
2024-01-16T20:16:34.654Z,0.53
2024-01-16T20:19:30.223Z,0.52
2024-01-16T20:22:18.900Z,0.51
2024-01-16T20:25:12.948Z,0.54
2024-01-16T20:27:42.661Z,0.52
2024-01-16T20:30:50.570Z,0.54
2024-01-16T20:33:46.682Z,0.58
2024-01-16T20:36:47.616Z,0.60
2024-01-16T20:39:59.265Z,0.61
2024-01-16T20:43:07.843Z,0.63
2024-01-16T20:46:03.787Z,0.66
2024-01-16T20:48:43.456Z,0.66
2024-01-16T20:51:51.522Z,0.67
2024-01-16T20:54:34.728Z,0.63
2024-01-16T20:57:37.843Z,0.57
2024-01-16T21:00:41.423Z,0.52
2024-01-16T21:03:37.232Z,0.51
2024-01-16T21:06:26.682Z,0.48
2024-01-16T21:09:36.764Z,0.46
2024-01-16T21:12:44.589Z,0.36
2024-01-16T21:15:14.828Z,0.25
2024-01-16T21:18:42.868Z,0.16
2024-01-16T21:21:28.001Z,0.12
2024-01-16T21:24:51.575Z,0.05
2024-01-16T21:27:29.188Z,0.02
2024-01-16T21:30:17.736Z,-0.03
2024-01-16T21:33:13.672Z,-0.09
2024-01-16T21:36:22.456Z,-0.15
2024-01-16T21:39:30.377Z,-0.20
2024-01-16T21:42:58.351Z,-0.26
2024-01-16T21:45:47.217Z,-0.29
2024-01-16T21:48:39.386Z,-0.32
2024-01-16T21:51:28.367Z,-0.37
2024-01-16T21:54:24.157Z,-0.42
2024-01-16T21:57:34.053Z,-0.45
2024-01-16T22:00:24.207Z,-0.45
2024-01-16T22:03:51.969Z,-0.45
2024-01-16T22:06:44.386Z,-0.47
2024-01-16T22:10:12.074Z,-0.50
2024-01-16T22:13:24.042Z,-0.56
2024-01-16T22:16:51.856Z,-0.63
2024-01-16T22:19:40.502Z,-0.64
2024-01-16T22:22:49.246Z,-0.67
2024-01-16T22:26:00.767Z,-0.68
2024-01-16T22:29:04.782Z,-0.68
2024-01-16T22:32:32.876Z,-0.66
2024-01-16T22:35:40.532Z,-0.67
2024-01-16T22:39:08.413Z,-0.76
2024-01-16T22:42:16.748Z,-0.84
2024-01-16T22:45:25.739Z,-0.89
2024-01-16T22:48:53.639Z,-0.90
2024-01-16T22:51:43.416Z,-0.87
2024-01-16T22:55:11.544Z,-0.84
2024-01-16T22:58:19.781Z,-0.88
2024-01-16T23:01:28.381Z,-0.93
2024-01-16T23:04:56.460Z,-0.99
2024-01-16T23:08:24.317Z,-1.04
2024-01-16T23:11:52.101Z,-1.04
2024-01-16T23:15:01.907Z,-1.06
2024-01-16T23:18:18.130Z,-1.09
2024-01-16T23:21:27.724Z,-1.11
2024-01-16T23:24:55.573Z,-1.13
2024-01-16T23:28:03.302Z,-1.19
2024-01-16T23:31:09.177Z,-1.19
2024-01-16T23:34:36.649Z,-1.19
2024-01-16T23:38:04.641Z,-1.20
2024-01-16T23:41:32.715Z,-1.24
2024-01-16T23:44:40.584Z,-1.22
2024-01-16T23:47:46.807Z,-1.20
2024-01-16T23:51:14.511Z,-1.18
2024-01-16T23:54:19.940Z,-1.20
2024-01-16T23:57:10.410Z,-1.22
